createdAt,value
2019-04-01T00:01:27.240Z,83.13
2019-04-01T00:04:32.400Z,83.21
2019-04-01T00:07:37.916Z,84.04
2019-04-01T00:10:43.029Z,83.97
2019-04-01T00:13:50.011Z,84.24
2019-04-01T00:16:55.122Z,84.33
2019-04-01T00:20:00.370Z,84.65
2019-04-01T00:23:05.605Z,84.85
2019-04-01T00:26:10.983Z,84.65
2019-04-01T00:29:16.136Z,84.97
2019-04-01T00:32:21.322Z,85.22
2019-04-01T00:35:26.396Z,84.34
2019-04-01T00:38:31.499Z,82.44
2019-04-01T00:41:44.454Z,82.91
2019-04-01T00:44:49.694Z,83.45
2019-04-01T00:47:54.988Z,83.13
2019-04-01T00:51:00.072Z,83.81
2019-04-01T00:54:05.300Z,84.39
2019-04-01T00:57:10.776Z,84.97
2019-04-01T01:00:17.965Z,85.02
2019-04-01T01:03:23.130Z,83.61
2019-04-01T01:06:28.303Z,82.69
2019-04-01T01:09:33.433Z,82.01
2019-04-01T01:12:38.679Z,82.05
2019-04-01T01:15:43.968Z,81.54
2019-04-01T01:18:49.107Z,82.07
2019-04-01T01:21:54.282Z,82.88
2019-04-01T01:24:59.498Z,83.62
2019-04-01T01:28:04.692Z,83.85
2019-04-01T01:31:09.913Z,82.66
2019-04-01T01:34:15.094Z,83.24
2019-04-01T01:37:20.223Z,82.92
2019-04-01T01:40:25.465Z,82.72
2019-04-01T01:43:30.699Z,82.41
2019-04-01T01:46:37.060Z,83.09
2019-04-01T01:49:42.741Z,83.26
2019-04-01T01:52:48.007Z,83.72
2019-04-01T01:55:54.219Z,84.50
2019-04-01T01:58:59.329Z,83.21
2019-04-01T02:02:04.764Z,82.97
2019-04-01T02:05:10.026Z,84.11
2019-04-01T02:08:15.249Z,84.72
2019-04-01T02:11:20.365Z,84.20
2019-04-01T02:14:25.680Z,85.00
2019-04-01T02:17:30.842Z,85.48
2019-04-01T02:20:36.130Z,84.35
2019-04-01T02:23:41.273Z,85.54
2019-04-01T02:26:46.478Z,85.77
2019-04-01T02:29:51.679Z,86.39
2019-04-01T02:32:56.939Z,86.99
2019-04-01T02:36:02.128Z,87.14
2019-04-01T02:39:09.407Z,87.44
2019-04-01T02:42:14.589Z,87.27
2019-04-01T02:45:19.914Z,87.42
2019-04-01T02:48:25.145Z,87.84
2019-04-01T02:51:30.310Z,87.92
2019-04-01T02:54:35.519Z,87.58
2019-04-01T02:57:40.695Z,86.63
2019-04-01T03:00:45.961Z,86.94
2019-04-01T03:03:51.173Z,87.29
2019-04-01T03:06:56.287Z,87.63
2019-04-01T03:10:01.394Z,86.94
2019-04-01T03:13:06.615Z,86.50
2019-04-01T03:16:11.960Z,87.17
2019-04-01T03:19:17.145Z,87.17
2019-04-01T03:22:22.264Z,87.44
2019-04-01T03:25:27.389Z,87.02
2019-04-01T03:28:32.618Z,86.13
2019-04-01T03:31:37.951Z,85.49
2019-04-01T03:34:43.133Z,86.27
2019-04-01T03:37:48.359Z,85.91
2019-04-01T03:40:53.557Z,85.57
2019-04-01T03:43:58.716Z,85.01
2019-04-01T03:47:03.874Z,85.40
2019-04-01T03:50:09.232Z,85.24
2019-04-01T03:53:14.315Z,85.46
2019-04-01T03:56:19.429Z,85.72
2019-04-01T03:59:24.628Z,86.13
2019-04-01T04:02:29.891Z,86.05
2019-04-01T04:05:35.187Z,86.41
2019-04-01T04:08:41.399Z,87.05
2019-04-01T04:11:46.601Z,86.61
2019-04-01T04:14:51.986Z,86.56
2019-04-01T04:17:57.142Z,87.23
2019-04-01T04:21:02.302Z,87.12
2019-04-01T04:24:07.444Z,86.98
2019-04-01T04:27:12.591Z,87.30
2019-04-01T04:30:20.225Z,87.34
2019-04-01T04:33:25.378Z,86.72
2019-04-01T04:36:30.574Z,86.71
2019-04-01T04:39:35.780Z,85.83
2019-04-01T04:42:40.932Z,86.27
2019-04-01T04:45:46.128Z,86.34
2019-04-01T04:48:51.274Z,87.02
2019-04-01T04:51:56.362Z,87.21
2019-04-01T04:55:01.606Z,87.13
2019-04-01T04:58:06.757Z,87.04
2019-04-01T05:01:11.947Z,87.09
2019-04-01T05:04:17.135Z,87.82
2019-04-01T05:07:22.255Z,87.39
2019-04-01T05:10:27.441Z,87.40
2019-04-01T05:13:32.538Z,87.48
2019-04-01T05:16:37.705Z,87.58
2019-04-01T05:19:42.897Z,87.57
2019-04-01T05:22:48.377Z,87.35
2019-04-01T05:25:54.638Z,86.89
2019-04-01T05:29:00.466Z,85.53
2019-04-01T05:32:06.172Z,84.15
2019-04-01T05:35:11.286Z,82.66
2019-04-01T05:38:16.934Z,80.98
2019-04-01T05:41:22.153Z,80.26
2019-04-01T05:44:27.534Z,79.40
2019-04-01T05:47:37.494Z,78.89
2019-04-01T05:50:43.621Z,78.80
2019-04-01T05:53:48.811Z,76.58
2019-04-01T05:56:53.986Z,76.17
2019-04-01T05:59:59.203Z,75.72
2019-04-01T06:03:04.497Z,75.14
2019-04-01T06:06:09.670Z,73.42
2019-04-01T06:09:14.820Z,70.61
2019-04-01T06:12:20.224Z,70.65
2019-04-01T06:15:25.629Z,69.93
2019-04-01T06:18:30.775Z,68.93
2019-04-01T06:21:36.311Z,68.23
2019-04-01T06:24:41.819Z,66.96
2019-04-01T06:27:47.003Z,65.35
2019-04-01T06:30:52.251Z,65.45
2019-04-01T06:33:57.408Z,64.63
2019-04-01T06:37:02.514Z,62.39
2019-04-01T06:40:07.652Z,62.01
2019-04-01T06:43:13.933Z,59.75
2019-04-01T06:46:19.176Z,60.44
2019-04-01T06:49:24.365Z,59.44
2019-04-01T06:52:29.441Z,59.27
2019-04-01T06:55:34.616Z,58.96
2019-04-01T06:58:39.883Z,57.62
2019-04-01T07:01:45.016Z,57.29
2019-04-01T07:04:50.374Z,55.22
2019-04-01T07:07:55.541Z,55.93
2019-04-01T07:11:00.625Z,55.67
2019-04-01T07:14:06.046Z,55.03
2019-04-01T07:17:11.241Z,54.85
2019-04-01T07:20:16.426Z,56.52
2019-04-01T07:23:21.538Z,56.27
2019-04-01T07:26:26.701Z,55.19
2019-04-01T07:29:31.895Z,53.33
2019-04-01T07:32:37.083Z,55.07
2019-04-01T07:35:42.312Z,53.63
2019-04-01T07:38:47.575Z,52.01
2019-04-01T07:41:52.664Z,51.32
2019-04-01T07:44:58.096Z,53.08
2019-04-01T07:48:03.293Z,52.06
2019-04-01T07:51:09.310Z,52.98
2019-04-01T07:54:14.495Z,53.46
2019-04-01T07:57:19.653Z,52.46
2019-04-01T08:00:24.873Z,52.94
2019-04-01T08:03:30.137Z,52.23
2019-04-01T08:06:35.362Z,52.06
2019-04-01T08:09:40.766Z,51.60
2019-04-01T08:12:46.500Z,51.52
2019-04-01T08:15:51.717Z,50.98
2019-04-01T08:18:56.905Z,52.08
2019-04-01T08:22:02.163Z,52.45
2019-04-01T08:25:07.339Z,53.75
2019-04-01T08:28:12.556Z,53.92
2019-04-01T08:31:18.022Z,53.24
2019-04-01T08:34:23.279Z,53.23
2019-04-01T08:37:28.448Z,53.09
2019-04-01T08:40:33.623Z,51.92
2019-04-01T08:43:38.737Z,51.82
2019-04-01T08:46:43.833Z,52.62
2019-04-01T08:49:49.046Z,52.93
2019-04-01T08:52:54.365Z,52.97
2019-04-01T08:56:00.899Z,53.13
2019-04-01T08:59:07.404Z,51.95
2019-04-01T09:02:18.038Z,51.55
2019-04-01T09:05:19.476Z,51.48
2019-04-01T09:08:26.474Z,51.55
2019-04-01T09:11:31.702Z,52.39
2019-04-01T09:14:37.547Z,51.11
2019-04-01T09:17:42.708Z,51.41
2019-04-01T09:20:47.815Z,51.51
2019-04-01T09:23:52.997Z,51.51
2019-04-01T09:26:58.294Z,52.15
2019-04-01T09:30:03.467Z,50.97
2019-04-01T09:33:08.856Z,50.80
2019-04-01T09:36:13.980Z,51.02
2019-04-01T09:39:19.232Z,49.38
2019-04-01T09:42:24.466Z,49.91
2019-04-01T09:45:29.632Z,50.85
2019-04-01T09:48:34.746Z,51.27
2019-04-01T09:51:48.401Z,50.45
2019-04-01T09:54:46.858Z,49.57
2019-04-01T09:57:52.056Z,49.65
2019-04-01T10:00:57.148Z,49.21
2019-04-01T10:04:02.352Z,47.99
2019-04-01T10:07:07.458Z,48.82
2019-04-01T10:10:12.900Z,48.03
2019-04-01T10:13:18.011Z,48.22
2019-04-01T10:16:26.401Z,48.36
2019-04-01T10:19:29.983Z,48.56
2019-04-01T10:22:35.185Z,48.94
2019-04-01T10:25:40.349Z,48.88
2019-04-01T10:28:45.546Z,48.40
2019-04-01T10:31:50.645Z,47.93
2019-04-01T10:34:55.758Z,46.70
2019-04-01T10:38:01.006Z,46.84
2019-04-01T10:41:07.210Z,46.65
2019-04-01T10:44:12.323Z,46.55
2019-04-01T10:47:17.645Z,47.49
2019-04-01T10:50:23.047Z,46.02
2019-04-01T10:53:28.245Z,46.12
2019-04-01T10:56:35.841Z,46.59
2019-04-01T10:59:40.559Z,46.07
2019-04-01T11:02:45.846Z,46.19
2019-04-01T11:05:51.446Z,45.71
2019-04-01T11:08:56.646Z,45.86
2019-04-01T11:12:01.813Z,45.42
2019-04-01T11:15:07.399Z,45.49
2019-04-01T11:18:12.681Z,45.02
2019-04-01T11:21:17.877Z,44.70
2019-04-01T11:24:23.116Z,45.23
2019-04-01T11:27:28.340Z,44.82
2019-04-01T11:30:36.815Z,45.29
2019-04-01T11:33:40.560Z,45.38
2019-04-01T11:36:45.693Z,45.01
2019-04-01T11:39:51.004Z,44.57
2019-04-01T11:42:56.438Z,43.82
2019-04-01T11:46:01.813Z,44.39
2019-04-01T11:49:07.124Z,44.19
2019-04-01T11:52:15.398Z,43.48
2019-04-01T11:55:19.539Z,43.97
2019-04-01T11:58:24.763Z,43.17
2019-04-01T12:01:29.861Z,42.63
2019-04-01T12:04:35.041Z,42.22
2019-04-01T12:07:40.218Z,42.65
2019-04-01T12:10:45.516Z,42.74
2019-04-01T12:13:50.757Z,43.24
2019-04-01T12:16:55.931Z,43.25
2019-04-01T12:20:01.138Z,43.01
2019-04-01T12:23:06.567Z,42.97
2019-04-01T12:26:15.232Z,42.33
2019-04-01T12:29:18.681Z,42.07
2019-04-01T12:32:23.784Z,41.69
2019-04-01T12:35:29.055Z,40.89
2019-04-01T12:38:34.207Z,40.86
2019-04-01T12:41:39.432Z,40.52
2019-04-01T12:44:44.704Z,41.25
2019-04-01T12:47:49.882Z,40.07
2019-04-01T12:50:55.073Z,41.05
2019-04-01T12:54:00.232Z,40.64
2019-04-01T12:57:05.452Z,41.09
2019-04-01T13:00:12.380Z,41.68
2019-04-01T13:03:17.907Z,41.36
2019-04-01T13:06:23.848Z,41.01
2019-04-01T13:09:29.017Z,41.31
2019-04-01T13:12:34.362Z,40.51
2019-04-01T13:15:39.609Z,40.12
2019-04-01T13:18:44.744Z,39.82
2019-04-01T13:21:49.932Z,38.82
2019-04-01T13:24:55.026Z,39.01
2019-04-01T13:28:00.615Z,39.48
2019-04-01T13:31:05.787Z,39.04
2019-04-01T13:34:10.914Z,39.32
2019-04-01T13:37:16.041Z,38.86
2019-04-01T13:40:21.320Z,37.90
2019-04-01T13:43:26.626Z,38.32
2019-04-01T13:46:31.823Z,38.10
2019-04-01T13:49:37.138Z,38.58
2019-04-01T13:52:42.234Z,37.74
2019-04-01T13:55:47.466Z,37.99
2019-04-01T13:58:52.720Z,37.95
2019-04-01T14:01:57.868Z,37.24
2019-04-01T14:05:05.905Z,37.72
2019-04-01T14:08:09.790Z,38.07
2019-04-01T14:11:14.984Z,38.11
2019-04-01T14:14:20.197Z,37.37
2019-04-01T14:17:25.483Z,37.23
2019-04-01T14:20:30.681Z,36.85
2019-04-01T14:23:35.838Z,37.13
2019-04-01T14:26:41.116Z,36.79
2019-04-01T14:29:46.563Z,37.12
2019-04-01T14:32:51.803Z,37.84
2019-04-01T14:35:57.079Z,37.68
2019-04-01T14:39:02.340Z,37.37
2019-04-01T14:42:09.193Z,36.89
2019-04-01T14:45:14.690Z,36.78
2019-04-01T14:48:19.841Z,37.37
2019-04-01T14:51:26.074Z,36.70
2019-04-01T14:54:31.363Z,37.33
2019-04-01T14:57:36.626Z,37.24
2019-04-01T15:00:41.800Z,36.34
2019-04-01T15:03:47.039Z,36.65
2019-04-01T15:06:52.307Z,37.55
2019-04-01T15:09:58.389Z,36.82
2019-04-01T15:13:05.657Z,37.14
2019-04-01T15:16:10.658Z,36.73
2019-04-01T15:19:15.851Z,37.26
2019-04-01T15:22:27.148Z,37.29
2019-04-01T15:25:31.787Z,37.48
2019-04-01T15:28:37.329Z,37.39
2019-04-01T15:31:42.582Z,37.44
2019-04-01T15:34:48.059Z,37.70
2019-04-01T15:37:53.229Z,37.07
2019-04-01T15:40:58.485Z,37.15
2019-04-01T15:44:04.807Z,37.61
2019-04-01T15:47:10.077Z,37.36
2019-04-01T15:50:27.880Z,37.78
2019-04-01T15:53:23.605Z,37.55
2019-04-01T15:56:29.270Z,37.81
2019-04-01T15:59:34.850Z,37.60
2019-04-01T16:02:40.390Z,37.75
2019-04-01T16:05:45.653Z,37.82
2019-04-01T16:08:50.966Z,37.99
2019-04-01T16:11:56.110Z,38.23
2019-04-01T16:15:01.572Z,38.17
2019-04-01T16:18:06.921Z,37.86
2019-04-01T16:21:12.116Z,38.09
2019-04-01T16:24:17.247Z,38.29
2019-04-01T16:27:22.519Z,38.50
2019-04-01T16:30:28.091Z,38.40
2019-04-01T16:33:33.596Z,39.22
2019-04-01T16:36:38.854Z,39.24
2019-04-01T16:39:44.038Z,39.54
2019-04-01T16:42:49.132Z,39.19
2019-04-01T16:45:56.021Z,39.01
2019-04-01T16:49:01.294Z,39.00
2019-04-01T16:52:08.707Z,39.62
2019-04-01T16:55:14.301Z,39.74
2019-04-01T16:58:19.467Z,39.27
2019-04-01T17:01:24.772Z,39.74
2019-04-01T17:04:30.053Z,40.29
2019-04-01T17:07:35.180Z,40.12
2019-04-01T17:10:40.288Z,40.65
2019-04-01T17:13:45.701Z,40.34
2019-04-01T17:16:50.971Z,41.25
2019-04-01T17:19:56.062Z,41.04
2019-04-01T17:23:01.450Z,41.52
2019-04-01T17:26:06.735Z,42.12
2019-04-01T17:29:12.044Z,42.20
2019-04-01T17:32:17.217Z,42.07
2019-04-01T17:35:22.358Z,42.49
2019-04-01T17:38:27.648Z,42.90
2019-04-01T17:41:33.140Z,44.08
2019-04-01T17:44:38.335Z,45.14
2019-04-01T17:47:43.646Z,46.75
2019-04-01T17:50:49.026Z,47.55
2019-04-01T17:53:54.205Z,48.70
2019-04-01T17:56:59.367Z,51.44
2019-04-01T18:00:08.796Z,52.18
2019-04-01T18:03:14.399Z,52.61
2019-04-01T18:06:19.594Z,52.27
2019-04-01T18:09:24.882Z,52.19
2019-04-01T18:12:30.119Z,52.80
2019-04-01T18:15:35.291Z,52.54
2019-04-01T18:18:40.887Z,53.52
2019-04-01T18:21:46.089Z,54.98
2019-04-01T18:24:52.077Z,55.88
2019-04-01T18:27:57.242Z,55.75
2019-04-01T18:31:03.977Z,56.19
2019-04-01T18:34:09.265Z,56.04
2019-04-01T18:37:14.385Z,57.33
2019-04-01T18:40:31.907Z,56.66
2019-04-01T18:43:28.239Z,57.16
2019-04-01T18:46:33.718Z,58.40
2019-04-01T18:49:38.956Z,59.37
2019-04-01T18:52:44.093Z,59.17
2019-04-01T18:55:52.596Z,60.65
2019-04-01T18:58:56.135Z,60.94
2019-04-01T19:02:01.357Z,61.88
2019-04-01T19:05:06.934Z,61.64
2019-04-01T19:08:12.168Z,62.29
2019-04-01T19:11:17.352Z,61.52
2019-04-01T19:14:23.577Z,62.77
2019-04-01T19:17:28.797Z,63.96
2019-04-01T19:20:34.050Z,64.76
2019-04-01T19:23:39.231Z,64.50
2019-04-01T19:26:44.456Z,64.04
2019-04-01T19:29:49.756Z,65.17
2019-04-01T19:32:55.026Z,64.25
2019-04-01T19:36:01.250Z,65.86
2019-04-01T19:39:07.698Z,65.66
2019-04-01T19:42:13.193Z,66.52
2019-04-01T19:45:18.347Z,66.28
2019-04-01T19:48:23.806Z,67.32
2019-04-01T19:51:28.990Z,66.96
2019-04-01T19:54:34.527Z,67.23
2019-04-01T19:57:41.031Z,67.43
2019-04-01T20:00:46.289Z,67.27
2019-04-01T20:03:51.490Z,66.41
2019-04-01T20:06:56.670Z,66.19
2019-04-01T20:10:04.651Z,65.67
2019-04-01T20:13:10.306Z,63.25
2019-04-01T20:16:15.952Z,64.49
2019-04-01T20:19:21.261Z,65.58
2019-04-01T20:22:26.540Z,66.17
2019-04-01T20:25:31.692Z,66.26
2019-04-01T20:28:37.049Z,67.91
2019-04-01T20:31:42.302Z,66.43
2019-04-01T20:34:56.897Z,64.98
2019-04-01T20:37:54.479Z,64.97
2019-04-01T20:40:59.803Z,64.97
2019-04-01T20:44:05.323Z,65.27
2019-04-01T20:47:10.492Z,66.04
2019-04-01T20:50:16.151Z,66.99
2019-04-01T20:53:21.434Z,67.64
2019-04-01T20:56:26.782Z,67.52
2019-04-01T20:59:32.129Z,67.83
2019-04-01T21:02:37.404Z,68.07
2019-04-01T21:05:42.547Z,67.24
2019-04-01T21:08:47.880Z,66.13
2019-04-01T21:11:53.263Z,65.91
2019-04-01T21:15:01.286Z,65.53
2019-04-01T21:18:08.010Z,66.89
2019-04-01T21:21:13.329Z,65.41
2019-04-01T21:24:19.619Z,67.05
2019-04-01T21:27:24.949Z,68.49
2019-04-01T21:30:30.494Z,69.37
2019-04-01T21:33:35.622Z,69.35
2019-04-01T21:36:40.967Z,69.22
2019-04-01T21:39:46.365Z,70.19
2019-04-01T21:42:52.005Z,68.94
2019-04-01T21:45:58.458Z,69.79
2019-04-01T21:49:03.539Z,70.41
2019-04-01T21:52:08.661Z,70.14
2019-04-01T21:55:14.034Z,70.13
2019-04-01T21:58:20.050Z,70.27
2019-04-01T22:01:25.638Z,70.81
2019-04-01T22:04:31.006Z,72.32
2019-04-01T22:07:38.155Z,73.09
2019-04-01T22:10:43.344Z,73.91
2019-04-01T22:13:48.503Z,74.94
2019-04-01T22:16:53.686Z,75.49
2019-04-01T22:19:58.832Z,75.75
2019-04-01T22:23:04.082Z,75.20
2019-04-01T22:26:09.392Z,76.06
2019-04-01T22:29:14.548Z,76.52
2019-04-01T22:32:19.756Z,77.42
2019-04-01T22:35:25.437Z,77.89
2019-04-01T22:38:30.595Z,77.26
2019-04-01T22:41:36.214Z,77.44
2019-04-01T22:44:41.336Z,77.03
2019-04-01T22:47:46.603Z,77.35
2019-04-01T22:50:51.867Z,77.43
2019-04-01T22:53:57.259Z,78.00
2019-04-01T22:57:02.397Z,78.54
2019-04-01T23:00:08.007Z,79.38
2019-04-01T23:03:14.771Z,80.16
2019-04-01T23:06:19.866Z,80.67
2019-04-01T23:09:26.211Z,80.97
2019-04-01T23:12:31.435Z,81.01
2019-04-01T23:15:36.626Z,81.79
2019-04-01T23:18:41.875Z,81.83
2019-04-01T23:21:47.165Z,81.12
2019-04-01T23:24:52.401Z,81.40
2019-04-01T23:27:57.539Z,82.28
2019-04-01T23:31:02.623Z,82.61
2019-04-01T23:34:07.860Z,82.48
2019-04-01T23:37:13.022Z,83.05
2019-04-01T23:40:18.391Z,83.60
2019-04-01T23:43:23.499Z,83.89
2019-04-01T23:46:28.691Z,83.87
2019-04-01T23:49:33.794Z,83.96
2019-04-01T23:52:39.058Z,84.11
2019-04-01T23:55:44.213Z,84.68
2019-04-01T23:58:50.235Z,84.32
